MET'MAP v2.0
soon released !

Expected late october,
this new version will be
more efficient, smarter,
and hosted on a brand new
server x3 powerfull...
...and still free !


Not compatible ?
Try the mobile version !

LOG IN : | Subscribe | Disclaimer | Who is Orbifly ? |
ICAO code :

TAF - LGKZ Filippos - 25 Feb 2020 14:08 UTC - Data Source NOAA   


- Airport Elevation : 2059 ft
- IATA code : KZI
- No reported NOTAMs.


LGKZ - Filippos

Latest METAR recorded : 2015/08/11 07:50 LGKZ 110750Z 00000KT 9999 FEW025 25/14 Q1015
NO TAF


MET'MAP, your aeronautical weather chart ! - Copyright ORBIFLY December 2007

Programming & Development : Alexandra Zaïnal
Co-Developer : Marc-Olivier Méhu
Technical & hardware support : Manuel Goepfert
Concept & Financing : Baudouin d'Aumeries